createdAt,value
2022-11-15T00:02:26.569Z,5.64
2022-11-15T00:10:01.904Z,5.58
2022-11-15T00:17:35.697Z,5.46
2022-11-15T00:25:10.985Z,5.46
2022-11-15T00:32:44.771Z,5.35
2022-11-15T00:40:20.101Z,5.34
2022-11-15T00:47:54.535Z,5.33
2022-11-15T00:55:29.687Z,5.30
2022-11-15T01:03:03.907Z,5.27
2022-11-15T01:10:39.187Z,5.17
2022-11-15T01:18:12.991Z,5.11
2022-11-15T01:25:48.160Z,5.07
2022-11-15T01:33:22.133Z,5.01
2022-11-15T01:40:57.342Z,4.86
2022-11-15T01:48:34.978Z,4.83
2022-11-15T01:56:13.580Z,4.80
2022-11-15T02:03:53.873Z,4.76
2022-11-15T02:11:29.122Z,4.70
2022-11-15T02:19:15.595Z,4.64
2022-11-15T02:27:22.395Z,4.63
2022-11-15T02:35:04.272Z,4.59
2022-11-15T02:43:04.347Z,4.53
2022-11-15T02:50:42.853Z,4.42
2022-11-15T02:58:40.719Z,4.39
2022-11-15T03:06:27.651Z,4.36
2022-11-15T03:14:08.973Z,4.29
2022-11-15T03:21:45.968Z,4.27
2022-11-15T03:29:24.293Z,4.23
2022-11-15T03:36:59.456Z,4.20
2022-11-15T03:44:43.365Z,4.18
2022-11-15T03:52:20.823Z,4.15
2022-11-15T03:59:54.594Z,4.14
2022-11-15T04:07:30.196Z,4.11
2022-11-15T04:15:09.086Z,4.01
2022-11-15T04:23:12.788Z,4.00
2022-11-15T04:30:46.668Z,3.98
2022-11-15T04:38:22.076Z,3.95
2022-11-15T04:45:55.889Z,3.96
2022-11-15T04:53:31.539Z,3.92
2022-11-15T05:01:09.986Z,3.94
2022-11-15T05:08:45.170Z,3.89
2022-11-15T05:16:18.949Z,3.88
2022-11-15T05:23:54.239Z,3.87
2022-11-15T05:31:29.304Z,3.84
2022-11-15T05:39:06.175Z,3.82
2022-11-15T05:46:42.195Z,3.84
2022-11-15T05:54:19.606Z,3.84
2022-11-15T06:01:53.723Z,3.83
2022-11-15T06:09:28.981Z,3.81
2022-11-15T06:17:07.223Z,3.82
2022-11-15T06:24:45.254Z,3.78
2022-11-15T06:32:19.089Z,3.76
2022-11-15T06:39:54.493Z,3.76
2022-11-15T06:47:28.548Z,3.76
2022-11-15T06:55:04.483Z,3.80
2022-11-15T07:02:38.185Z,3.83
2022-11-15T07:10:13.443Z,3.86
2022-11-15T07:17:47.553Z,3.96
2022-11-15T07:25:22.812Z,4.13
2022-11-15T07:32:57.362Z,4.21
2022-11-15T07:40:33.783Z,4.30
2022-11-15T07:48:08.246Z,4.73
2022-11-15T07:55:45.143Z,5.43
2022-11-15T08:03:19.647Z,5.98
2022-11-15T08:10:54.845Z,6.35
2022-11-15T08:18:29.228Z,6.94
2022-11-15T08:26:05.715Z,7.33
2022-11-15T08:33:39.780Z,7.67
2022-11-15T08:41:17.877Z,7.85
2022-11-15T08:48:51.625Z,8.26
2022-11-15T08:56:27.881Z,8.56
2022-11-15T09:04:02.007Z,8.78
2022-11-15T09:11:37.259Z,8.78
2022-11-15T09:19:12.066Z,8.88
2022-11-15T09:26:47.455Z,8.95
2022-11-15T09:34:21.973Z,9.08
2022-11-15T09:42:22.894Z,9.11
2022-11-15T09:49:59.670Z,8.99
2022-11-15T09:57:42.879Z,9.18
2022-11-15T10:05:21.483Z,9.17
2022-11-15T10:12:57.425Z,9.18
2022-11-15T10:20:37.747Z,9.51
2022-11-15T10:28:17.495Z,9.68
2022-11-15T10:36:11.469Z,9.85
2022-11-15T10:43:47.678Z,9.91
2022-11-15T10:51:26.597Z,10.20
2022-11-15T10:59:01.821Z,10.52
2022-11-15T11:06:48.895Z,10.62
2022-11-15T11:14:28.120Z,10.68
2022-11-15T11:22:11.656Z,10.98
2022-11-15T11:30:02.841Z,10.95
2022-11-15T11:37:45.514Z,11.38
2022-11-15T11:45:28.857Z,11.62
2022-11-15T11:53:07.932Z,11.59
2022-11-15T12:00:52.067Z,11.59
2022-11-15T12:08:35.449Z,11.63
2022-11-15T12:16:18.001Z,11.77
2022-11-15T12:23:55.523Z,11.75
2022-11-15T12:31:42.027Z,11.77
2022-11-15T12:39:16.838Z,11.77
2022-11-15T12:47:25.116Z,12.11
2022-11-15T12:55:05.015Z,12.41
2022-11-15T13:02:42.911Z,12.35
2022-11-15T13:10:32.770Z,12.46
2022-11-15T13:18:43.131Z,12.40
2022-11-15T13:26:18.538Z,12.26
2022-11-15T13:33:52.588Z,12.42
2022-11-15T13:41:29.929Z,12.42
2022-11-15T13:49:05.997Z,12.34
2022-11-15T13:56:44.788Z,12.62
2022-11-15T14:04:22.590Z,12.64
2022-11-15T14:11:58.991Z,12.43
2022-11-15T14:19:39.832Z,12.37
2022-11-15T14:27:27.097Z,12.42
2022-11-15T14:35:02.132Z,12.43
2022-11-15T14:42:37.258Z,12.39
2022-11-15T14:50:14.726Z,12.25
2022-11-15T14:57:50.110Z,12.12
2022-11-15T15:05:25.822Z,11.88
2022-11-15T15:13:01.222Z,11.60
2022-11-15T15:20:40.737Z,11.37
2022-11-15T15:28:16.091Z,11.21
2022-11-15T15:35:50.325Z,11.02
2022-11-15T15:43:25.657Z,10.88
2022-11-15T15:50:59.597Z,10.81
2022-11-15T15:58:35.345Z,10.65
2022-11-15T16:06:39.409Z,10.54
2022-11-15T16:14:14.595Z,10.46
2022-11-15T16:21:49.569Z,10.34
2022-11-15T16:29:24.766Z,10.20
2022-11-15T16:36:58.581Z,10.10
2022-11-15T16:44:33.979Z,10.06
2022-11-15T16:52:07.967Z,10.03
2022-11-15T16:59:43.091Z,9.94
2022-11-15T17:07:17.158Z,9.89
2022-11-15T17:14:52.385Z,9.85
2022-11-15T17:22:26.838Z,9.80
2022-11-15T17:30:02.334Z,9.77
2022-11-15T17:37:36.875Z,9.71
2022-11-15T17:45:12.669Z,9.65
2022-11-15T17:52:46.492Z,9.52
2022-11-15T18:00:29.665Z,9.44
2022-11-15T18:08:03.596Z,9.35
2022-11-15T18:15:38.907Z,9.23
2022-11-15T18:23:12.742Z,9.14
2022-11-15T18:30:48.341Z,9.06
2022-11-15T18:38:22.134Z,9.00
2022-11-15T18:45:57.406Z,8.91
2022-11-15T18:53:31.942Z,8.79
2022-11-15T19:01:09.479Z,8.64
2022-11-15T19:08:47.559Z,8.59
2022-11-15T19:16:23.476Z,8.52
2022-11-15T19:23:57.693Z,8.50
2022-11-15T19:31:33.887Z,8.38
2022-11-15T19:39:10.222Z,8.38
2022-11-15T19:46:45.880Z,8.29
2022-11-15T19:54:20.212Z,8.27
2022-11-15T20:01:55.790Z,8.21
2022-11-15T20:09:29.573Z,8.10
2022-11-15T20:17:04.695Z,8.08
2022-11-15T20:24:38.565Z,8.03
2022-11-15T20:32:14.042Z,7.84
2022-11-15T20:39:48.463Z,7.80
2022-11-15T20:47:29.050Z,7.69
2022-11-15T20:55:04.020Z,7.62
2022-11-15T21:02:39.859Z,7.45
2022-11-15T21:10:31.456Z,7.53
2022-11-15T21:18:07.216Z,7.50
2022-11-15T21:25:41.080Z,7.39
2022-11-15T21:33:16.912Z,7.38
2022-11-15T21:40:51.895Z,7.22
2022-11-15T21:48:27.343Z,7.20
2022-11-15T21:56:01.871Z,7.16
2022-11-15T22:03:37.179Z,7.10
2022-11-15T22:11:11.146Z,6.97
2022-11-15T22:18:47.051Z,6.86
2022-11-15T22:26:23.770Z,6.81
2022-11-15T22:33:59.627Z,6.72
2022-11-15T22:41:33.597Z,6.79
2022-11-15T22:49:09.635Z,6.71
2022-11-15T22:56:43.551Z,6.69
2022-11-15T23:04:19.162Z,6.63
2022-11-15T23:12:10.550Z,6.47
2022-11-15T23:19:45.846Z,6.25
2022-11-15T23:27:20.714Z,6.12
2022-11-15T23:34:56.078Z,6.26
2022-11-15T23:42:30.173Z,6.21
2022-11-15T23:50:08.139Z,6.33
2022-11-15T23:57:42.118Z,6.30
